Terminal Aerodrome Forecast
Issued by NWS Sioux Falls, SD

Home | Current Version | Previous Version | Graphics & Text | Print | Product List | Glossary On
Versions: 1 2 3 4 5 6 7 8 9 10 11 12 13 14 15 16
564
FTUS43 KFSD 201122
TAFHON
TAF
KHON 201122Z 2012/2112 VRB03KT P6SM SCT070 BKN110
     FM201800 34006KT P6SM SCT070 BKN110
     FM210000 35004KT P6SM VCSH OVC050
     FM211100 36007KT 5SM -SN OVC025=

USA.gov is the U.S. government's official web portal to all federal, state and local government web resources and services.